Terminal Aerodrome Forecast
Issued by NWS Sioux Falls, SD

Home | Current Version | Previous Version | Text Only | Print | Product List | Glossary Off
Versions: 1 2 3 4 5 6 7 8 9 10 11 12 13 14 15

000
FTUS43 KFSD 010235 AAA
TAFSUX
TAF AMD
KSUX 010235Z 0103/0124 36012G18KT P6SM -RASN OVC010
     FM010900 34015G23KT 3SM -SN OVC006
     FM011600 32019G27KT P6SM VCSH OVC010
     FM011800 32020G28KT P6SM OVC015
     FM012100 32017G25KT P6SM BKN035=

USA.gov is the U.S. government's official web portal to all federal, state and local government web resources and services.